createdAt,value
2024-05-09T00:00:59.352Z,978.6
2024-05-09T00:01:59.346Z,978.4
2024-05-09T00:02:59.313Z,978.6
2024-05-09T00:03:59.398Z,978.6
2024-05-09T00:04:59.452Z,978.6
2024-05-09T00:05:59.416Z,978.8
2024-05-09T00:06:59.288Z,978.8
2024-05-09T00:07:59.403Z,979
2024-05-09T00:08:59.288Z,979.3
2024-05-09T00:09:59.292Z,979
2024-05-09T00:10:59.341Z,979
2024-05-09T00:11:59.466Z,979.3
2024-05-09T00:12:59.291Z,979.3
2024-05-09T00:13:59.391Z,979.3
2024-05-09T00:14:59.289Z,979
2024-05-09T00:15:59.315Z,979.3
2024-05-09T00:16:59.382Z,979.3
2024-05-09T00:17:59.421Z,979.3
2024-05-09T00:18:59.381Z,979.7
2024-05-09T00:19:59.318Z,979.3
2024-05-09T00:20:59.279Z,979.3
2024-05-09T00:21:59.311Z,979.3
2024-05-09T00:22:59.309Z,979
2024-05-09T00:23:59.319Z,978.8
2024-05-09T00:24:59.312Z,979.3
2024-05-09T00:25:59.371Z,979
2024-05-09T00:26:59.310Z,979.3
2024-05-09T00:27:59.346Z,979.3
2024-05-09T00:28:59.323Z,979.3
2024-05-09T00:29:59.298Z,979.3
2024-05-09T00:30:59.298Z,979.7
2024-05-09T00:31:59.344Z,979.3
2024-05-09T00:32:59.435Z,979.3
2024-05-09T00:33:59.498Z,979.3
2024-05-09T00:34:59.338Z,978.8
2024-05-09T00:35:59.307Z,979
2024-05-09T00:36:59.301Z,979
2024-05-09T00:37:59.350Z,978.8
2024-05-09T00:38:59.296Z,978.8
2024-05-09T00:39:59.298Z,979.3
2024-05-09T00:40:59.340Z,979.3
2024-05-09T00:41:59.284Z,979
2024-05-09T00:42:59.301Z,979.3
2024-05-09T00:43:59.356Z,979.5
2024-05-09T00:44:59.292Z,979.3
2024-05-09T00:45:59.297Z,979.5
2024-05-09T00:46:59.375Z,979.3
2024-05-09T00:47:59.494Z,979.3
2024-05-09T00:48:59.373Z,979.3
2024-05-09T00:49:59.389Z,979.5
2024-05-09T00:50:59.313Z,979.3
2024-05-09T00:51:59.315Z,979.7
2024-05-09T00:52:59.316Z,978.8
2024-05-09T00:53:59.323Z,979.3
2024-05-09T00:54:59.292Z,979.3
2024-05-09T00:55:59.361Z,978.8
2024-05-09T00:56:59.290Z,978.6
2024-05-09T00:57:59.290Z,979
2024-05-09T00:58:59.360Z,979.3
2024-05-09T00:59:59.318Z,979.3
2024-05-09T01:00:59.347Z,979.3
2024-05-09T01:01:59.406Z,979.3
2024-05-09T01:02:59.459Z,979.3
2024-05-09T01:03:59.423Z,979.7
2024-05-09T01:04:59.490Z,979.5
2024-05-09T01:05:59.364Z,978.8
2024-05-09T01:06:59.297Z,979.5
2024-05-09T01:07:59.365Z,979.7
2024-05-09T01:08:59.292Z,979.7
2024-05-09T01:09:59.295Z,979.7
2024-05-09T01:10:59.355Z,979.7
2024-05-09T01:11:59.415Z,979.7
2024-05-09T01:12:59.302Z,979.5
2024-05-09T01:13:59.341Z,979.7
2024-05-09T01:14:59.303Z,979.7
2024-05-09T01:15:59.291Z,979.7
2024-05-09T01:16:59.385Z,979.9
2024-05-09T01:17:59.568Z,979.9
2024-05-09T01:18:59.390Z,979.9
2024-05-09T01:19:59.373Z,980.1
2024-05-09T01:20:59.321Z,979.9
2024-05-09T01:21:59.295Z,980.1
2024-05-09T01:22:59.413Z,980.1
2024-05-09T01:25:59.384Z,980.1
2024-05-09T01:26:59.298Z,980.1
2024-05-09T01:27:59.333Z,980.1
2024-05-09T01:28:59.336Z,980.1
2024-05-09T01:29:59.311Z,980.1
2024-05-09T01:30:59.307Z,980.1
2024-05-09T01:31:59.483Z,980.1
2024-05-09T01:32:59.482Z,980.1
2024-05-09T01:33:59.417Z,980.1
2024-05-09T01:34:59.353Z,980.1
2024-05-09T01:35:59.304Z,980.1
2024-05-09T01:36:59.311Z,980.1
2024-05-09T01:37:59.373Z,980.1
2024-05-09T01:38:59.291Z,980.1
2024-05-09T01:39:59.294Z,980.1
2024-05-09T01:40:59.332Z,980.1
2024-05-09T01:41:59.301Z,980.1
2024-05-09T01:42:59.292Z,980.1
2024-05-09T01:43:59.353Z,980.1
2024-05-09T01:44:59.303Z,980.1
2024-05-09T01:45:59.292Z,980.1
2024-05-09T01:46:59.342Z,980.1
2024-05-09T01:47:59.781Z,980.1
2024-05-09T01:48:59.484Z,980.1
2024-05-09T01:49:59.335Z,980.1
2024-05-09T01:50:59.335Z,980.4
2024-05-09T01:51:59.306Z,980.6
2024-05-09T01:52:59.366Z,980.1
2024-05-09T01:53:59.292Z,980.6
2024-05-09T01:55:59.350Z,980.6
2024-05-09T01:56:59.302Z,980.6
2024-05-09T01:57:59.295Z,980.6
2024-05-09T01:58:59.439Z,980.6
2024-05-09T01:59:59.312Z,980.6
2024-05-09T02:00:59.200Z,980.6
2024-05-09T02:01:59.668Z,980.8
2024-05-09T02:02:59.460Z,980.6
2024-05-09T02:03:59.471Z,980.8
2024-05-09T02:04:59.371Z,980.8
2024-05-09T02:05:59.347Z,980.6
2024-05-09T02:06:59.309Z,980.8
2024-05-09T02:07:59.363Z,980.8
2024-05-09T02:08:59.306Z,980.6
2024-05-09T02:09:59.311Z,981
2024-05-09T02:10:59.440Z,981
2024-05-09T02:11:59.350Z,980.8
2024-05-09T02:12:59.343Z,980.8
2024-05-09T02:13:59.400Z,980.8
2024-05-09T02:14:59.316Z,980.8
2024-05-09T02:15:59.304Z,980.8
2024-05-09T02:16:59.371Z,980.8
2024-05-09T02:17:59.426Z,980.6
2024-05-09T02:18:59.384Z,981
2024-05-09T02:19:59.443Z,980.8
2024-05-09T02:20:59.337Z,981
2024-05-09T02:21:59.340Z,981
2024-05-09T02:22:59.318Z,981
2024-05-09T02:23:59.353Z,981
2024-05-09T02:24:59.565Z,981
2024-05-09T02:25:59.366Z,981
2024-05-09T02:26:59.307Z,981
2024-05-09T02:27:59.468Z,980.6
2024-05-09T02:28:59.345Z,981
2024-05-09T02:29:59.346Z,981
2024-05-09T02:30:59.306Z,981
2024-05-09T02:31:59.386Z,981
2024-05-09T02:32:59.485Z,981
2024-05-09T02:33:59.502Z,981
2024-05-09T02:34:59.377Z,981
2024-05-09T02:35:59.310Z,981
2024-05-09T02:36:59.295Z,981
2024-05-09T02:37:59.413Z,981
2024-05-09T02:38:59.307Z,981
2024-05-09T02:39:59.342Z,981
2024-05-09T02:40:59.322Z,980.8
2024-05-09T02:41:59.332Z,981
2024-05-09T02:42:59.295Z,981
2024-05-09T02:43:59.310Z,980.8
2024-05-09T02:44:59.299Z,980.8
2024-05-09T02:45:59.311Z,980.6
2024-05-09T02:46:59.316Z,980.6
2024-05-09T02:47:59.595Z,980.6
2024-05-09T02:48:59.379Z,980.6
2024-05-09T02:49:59.355Z,980.6
2024-05-09T02:50:59.350Z,980.6
2024-05-09T02:51:59.310Z,980.6
2024-05-09T02:52:59.346Z,980.6
2024-05-09T02:53:59.311Z,980.6
2024-05-09T02:54:59.304Z,980.6
2024-05-09T02:55:59.338Z,980.6
2024-05-09T02:56:59.318Z,980.6
2024-05-09T02:57:59.427Z,980.6
2024-05-09T02:58:59.346Z,980.6
2024-05-09T02:59:59.321Z,980.6
2024-05-09T03:00:59.354Z,980.6
2024-05-09T03:01:59.402Z,980.6
2024-05-09T03:02:59.506Z,980.8
2024-05-09T03:03:59.490Z,980.8
2024-05-09T03:04:59.394Z,980.6
2024-05-09T03:05:59.296Z,980.6
2024-05-09T03:06:59.300Z,980.6
2024-05-09T03:07:59.497Z,980.6
2024-05-09T03:08:59.297Z,980.8
2024-05-09T03:09:59.306Z,981
2024-05-09T03:10:59.335Z,981
2024-05-09T03:11:59.651Z,980.8
2024-05-09T03:12:59.308Z,980.8
2024-05-09T03:13:59.376Z,980.8
2024-05-09T03:14:59.300Z,980.8
2024-05-09T03:15:59.365Z,980.8
2024-05-09T03:16:59.385Z,980.6
2024-05-09T03:17:59.437Z,980.8
2024-05-09T03:18:59.360Z,980.8
2024-05-09T03:19:59.401Z,980.6
2024-05-09T03:20:59.331Z,980.8
2024-05-09T03:21:59.302Z,980.8
2024-05-09T03:22:59.359Z,980.8
2024-05-09T03:23:59.310Z,980.8
2024-05-09T03:24:59.316Z,980.8
2024-05-09T03:25:59.362Z,980.8
2024-05-09T03:26:59.323Z,981
2024-05-09T03:27:59.460Z,981
2024-05-09T03:28:59.324Z,981
2024-05-09T03:29:59.324Z,981
2024-05-09T03:30:59.306Z,981
2024-05-09T03:31:59.398Z,980.8
2024-05-09T03:32:59.539Z,981
2024-05-09T03:33:59.459Z,981
2024-05-09T03:34:59.336Z,980.8
2024-05-09T03:35:59.303Z,980.8
2024-05-09T03:36:59.346Z,981
2024-05-09T03:37:59.357Z,980.8
2024-05-09T03:38:59.357Z,981
2024-05-09T03:39:59.296Z,980.8
2024-05-09T03:40:59.322Z,980.8
2024-05-09T03:41:59.294Z,981
2024-05-09T03:42:59.300Z,980.8
2024-05-09T03:43:59.361Z,980.6
2024-05-09T03:44:59.332Z,980.8
2024-05-09T03:45:59.307Z,980.8
2024-05-09T03:46:59.418Z,980.6
2024-05-09T03:47:59.475Z,980.8
2024-05-09T03:48:59.346Z,980.6
2024-05-09T03:49:59.366Z,980.6
2024-05-09T03:50:59.337Z,980.8
2024-05-09T03:51:59.309Z,980.6
2024-05-09T03:52:59.296Z,980.6
2024-05-09T03:53:59.299Z,980.6
2024-05-09T03:54:59.295Z,980.6
2024-05-09T03:55:59.396Z,980.6
2024-05-09T03:56:59.313Z,980.6
2024-05-09T03:57:59.701Z,980.6
2024-05-09T03:58:59.343Z,980.6
2024-05-09T03:59:59.302Z,980.6
2024-05-09T04:00:59.357Z,980.6
2024-05-09T04:01:59.528Z,980.6
2024-05-09T04:02:59.513Z,980.6
2024-05-09T04:04:00.409Z,980.6
2024-05-09T04:04:59.347Z,980.4
2024-05-09T04:05:59.301Z,980.6
2024-05-09T04:06:59.339Z,980.6
2024-05-09T04:07:59.440Z,980.4
2024-05-09T04:08:59.303Z,980.6
2024-05-09T04:09:59.330Z,980.6
2024-05-09T04:10:59.387Z,980.6
2024-05-09T04:11:59.506Z,980.6
2024-05-09T04:12:59.322Z,980.6
2024-05-09T04:13:59.343Z,980.6
2024-05-09T04:14:59.306Z,980.6
2024-05-09T04:15:59.316Z,980.6
2024-05-09T04:16:59.392Z,980.6
2024-05-09T04:17:59.788Z,980.8
2024-05-09T04:18:59.432Z,980.6
2024-05-09T04:19:59.343Z,980.6
2024-05-09T04:20:59.436Z,980.6
2024-05-09T04:21:59.305Z,980.6
2024-05-09T04:22:59.370Z,980.6
2024-05-09T04:23:59.338Z,980.1
2024-05-09T04:24:59.299Z,980.6
2024-05-09T04:25:59.662Z,980.6
2024-05-09T04:26:59.330Z,980.6
2024-05-09T04:27:59.295Z,980.6
2024-05-09T04:28:59.341Z,980.6
2024-05-09T04:29:59.360Z,980.6
2024-05-09T04:30:59.309Z,980.6
2024-05-09T04:31:59.403Z,980.1
2024-05-09T04:32:59.424Z,980.4
2024-05-09T04:33:59.422Z,980.4
2024-05-09T04:34:59.380Z,980.1
2024-05-09T04:35:59.290Z,980.1
2024-05-09T04:36:59.308Z,980.6
2024-05-09T04:37:59.400Z,980.6
2024-05-09T04:38:59.291Z,980.6
2024-05-09T04:39:59.295Z,980.4
2024-05-09T04:40:59.314Z,980.1
2024-05-09T04:41:59.292Z,980.1
2024-05-09T04:42:59.299Z,980.1
2024-05-09T04:43:59.322Z,980.1
2024-05-09T04:44:59.282Z,980.1
2024-05-09T04:45:59.287Z,980.1
2024-05-09T04:46:59.350Z,980.4
2024-05-09T04:47:59.778Z,980.6
2024-05-09T04:48:59.431Z,980.6
2024-05-09T04:49:59.318Z,980.6
2024-05-09T04:50:59.424Z,980.6
2024-05-09T04:51:59.314Z,980.6
2024-05-09T04:52:59.359Z,980.6
2024-05-09T04:53:59.302Z,980.6
2024-05-09T04:54:59.287Z,980.4
2024-05-09T04:55:59.325Z,980.1
2024-05-09T04:56:59.286Z,980.4
2024-05-09T04:57:59.292Z,980.6
2024-05-09T04:58:59.370Z,980.6
2024-05-09T04:59:59.322Z,980.4
2024-05-09T05:00:59.342Z,980.1
2024-05-09T05:01:59.388Z,979.7
2024-05-09T05:02:59.669Z,980.1
2024-05-09T05:03:59.503Z,979.9
2024-05-09T05:04:59.409Z,980.1
2024-05-09T05:05:59.465Z,979.7
2024-05-09T05:07:02.543Z,979.7
2024-05-09T05:07:59.357Z,980.1
2024-05-09T05:08:59.290Z,980.4
2024-05-09T05:09:59.309Z,980.1
2024-05-09T05:10:59.361Z,980.6
2024-05-09T05:11:59.480Z,980.1
2024-05-09T05:12:59.283Z,980.4
2024-05-09T05:13:59.328Z,980.6
2024-05-09T05:14:59.292Z,980.6
2024-05-09T05:15:59.288Z,980.4
2024-05-09T05:16:59.375Z,980.6
2024-05-09T05:17:59.491Z,980.1
2024-05-09T05:18:59.415Z,980.4
2024-05-09T05:19:59.391Z,980.4
2024-05-09T05:20:59.489Z,980.1
2024-05-09T05:21:59.336Z,980.1
2024-05-09T05:22:59.396Z,980.1
2024-05-09T05:23:59.298Z,980.1
2024-05-09T05:24:59.292Z,980.1
2024-05-09T05:25:59.322Z,979.7
2024-05-09T05:26:59.310Z,979.5
2024-05-09T05:27:59.292Z,979.7
2024-05-09T05:28:59.311Z,979.7
2024-05-09T05:29:59.296Z,979.7
2024-05-09T05:30:59.333Z,979.7
2024-05-09T05:31:59.394Z,979.3
2024-05-09T05:32:59.453Z,979.3
2024-05-09T05:33:59.354Z,979.3
2024-05-09T05:34:59.334Z,979.5
2024-05-09T05:35:59.298Z,979.3
2024-05-09T05:36:59.288Z,979.3
2024-05-09T05:37:59.319Z,979.3
2024-05-09T05:38:59.325Z,979.3
2024-05-09T05:39:59.305Z,979
2024-05-09T05:40:59.383Z,978.8
2024-05-09T05:41:59.311Z,979
2024-05-09T05:42:59.298Z,979
2024-05-09T05:43:59.405Z,978.8
2024-05-09T05:44:59.298Z,978.8
2024-05-09T05:45:59.321Z,978.8
2024-05-09T05:46:59.307Z,978.8
2024-05-09T05:47:59.481Z,978.8
2024-05-09T05:48:59.461Z,978.6
2024-05-09T05:49:59.327Z,978.8
2024-05-09T05:51:01.920Z,978.4
2024-05-09T05:51:59.282Z,978.4
2024-05-09T05:52:59.351Z,978.2
2024-05-09T05:53:59.284Z,978.4
2024-05-09T05:54:59.307Z,978.2
2024-05-09T05:55:59.332Z,978.2
2024-05-09T05:56:59.292Z,978
2024-05-09T05:57:59.290Z,978
2024-05-09T05:58:59.323Z,977.7
2024-05-09T05:59:59.308Z,978
2024-05-09T06:00:59.318Z,977.5
2024-05-09T06:01:59.327Z,977.5
2024-05-09T06:02:59.347Z,976.9
2024-05-09T06:03:59.482Z,976.7
2024-05-09T06:04:59.421Z,976.7
2024-05-09T06:05:59.446Z,976.2
2024-05-09T06:06:59.288Z,976.4
2024-05-09T06:07:59.365Z,976.4
2024-05-09T06:08:59.381Z,976.2
2024-05-09T06:09:59.298Z,976.4
2024-05-09T06:10:59.378Z,976.4
2024-05-09T06:11:59.377Z,976.2
2024-05-09T06:12:59.287Z,976
2024-05-09T06:13:59.374Z,975.8
2024-05-09T06:14:59.284Z,975.4
2024-05-09T06:15:59.282Z,974.9
2024-05-09T06:16:59.315Z,974.7
2024-05-09T06:17:59.579Z,975.1
2024-05-09T06:18:59.504Z,974.9
2024-05-09T06:19:59.321Z,974.9
2024-05-09T06:20:59.304Z,974.9
2024-05-09T06:21:59.289Z,974.9
2024-05-09T06:22:59.295Z,974.9
2024-05-09T06:23:59.288Z,974.5
2024-05-09T06:24:59.302Z,974.5
2024-05-09T06:25:59.320Z,974.7
2024-05-09T06:26:59.324Z,974.5
2024-05-09T06:27:59.307Z,974
2024-05-09T06:28:59.327Z,974.3
2024-05-09T06:29:59.302Z,974
2024-05-09T06:30:59.285Z,973.8
2024-05-09T06:32:00.384Z,973.8
2024-05-09T06:32:59.458Z,972.7
2024-05-09T06:33:59.424Z,972.7
2024-05-09T06:34:59.326Z,972.5
2024-05-09T06:35:59.306Z,972.7
2024-05-09T06:36:59.290Z,972.3
2024-05-09T06:37:59.392Z,972.3
2024-05-09T06:38:59.302Z,972.3
2024-05-09T06:39:59.307Z,972.3
2024-05-09T06:40:59.337Z,972.1
2024-05-09T06:41:59.332Z,972.3
2024-05-09T06:42:59.297Z,972.7
2024-05-09T06:43:59.317Z,972.3
2024-05-09T06:44:59.286Z,972.3
2024-05-09T06:45:59.289Z,971.9
2024-05-09T06:47:00.069Z,971.4
2024-05-09T06:47:59.667Z,971.7
2024-05-09T06:48:59.559Z,971.9
2024-05-09T06:49:59.371Z,971.9
2024-05-09T06:50:59.307Z,971.9
2024-05-09T06:51:59.294Z,971.4
2024-05-09T06:52:59.326Z,971.7
2024-05-09T06:53:59.286Z,971.4
2024-05-09T06:54:59.292Z,971.4
2024-05-09T06:55:59.297Z,971.4
2024-05-09T06:56:59.292Z,972.1
2024-05-09T06:57:59.288Z,972.3
2024-05-09T06:58:59.313Z,971.9
2024-05-09T06:59:59.305Z,971.7
2024-05-09T07:00:59.311Z,971.4
2024-05-09T07:01:59.323Z,971.9
2024-05-09T07:03:01.650Z,971.7
2024-05-09T07:03:59.386Z,971.9
2024-05-09T07:04:59.396Z,971.9
2024-05-09T07:05:59.384Z,971
2024-05-09T07:06:59.288Z,971.4
2024-05-09T07:07:59.335Z,971
2024-05-09T07:08:59.295Z,970.6
2024-05-09T07:09:59.300Z,970.6
2024-05-09T07:10:59.400Z,970.6
2024-05-09T07:11:59.491Z,971
2024-05-09T07:12:59.357Z,970.6
2024-05-09T07:13:59.394Z,970.4
2024-05-09T07:14:59.293Z,970.4
2024-05-09T07:15:59.287Z,970.6
2024-05-09T07:16:59.347Z,969.7
2024-05-09T07:17:59.449Z,969.3
2024-05-09T07:18:59.421Z,969.3
2024-05-09T07:19:59.329Z,969.3
2024-05-09T07:20:59.310Z,969.5
2024-05-09T07:21:59.294Z,969.3
2024-05-09T07:22:59.314Z,969.7
2024-05-09T07:23:59.300Z,969.7
2024-05-09T07:24:59.303Z,969.9
2024-05-09T07:25:59.343Z,969.3
2024-05-09T07:26:59.344Z,969.3
2024-05-09T07:27:59.295Z,969.3
2024-05-09T07:28:59.325Z,969.7
2024-05-09T07:29:59.306Z,969.7
2024-05-09T07:30:59.315Z,969.5
2024-05-09T07:31:59.342Z,969.3
2024-05-09T07:32:59.455Z,969
2024-05-09T07:33:59.462Z,969.7
2024-05-09T07:34:59.318Z,969.3
2024-05-09T07:35:59.296Z,969.7
2024-05-09T07:36:59.312Z,969.7
2024-05-09T07:37:59.314Z,969.7
2024-05-09T07:38:59.295Z,969.3
2024-05-09T07:39:59.302Z,969.3
2024-05-09T07:40:59.455Z,969.5
2024-05-09T07:41:59.307Z,968.4
2024-05-09T07:42:59.290Z,968
2024-05-09T07:43:59.345Z,968
2024-05-09T07:45:14.851Z,968.8
2024-05-09T07:46:23.071Z,968.6
2024-05-09T07:50:35.810Z,968
2024-05-09T07:51:47.495Z,968
2024-05-09T07:53:00.912Z,968.4
2024-05-09T07:53:22.058Z,968
2024-05-09T07:54:00.979Z,968.6
2024-05-09T07:54:59.541Z,968.2
2024-05-09T07:55:59.453Z,968
2024-05-09T07:56:59.470Z,966.2
2024-05-09T07:57:59.375Z,966.7
2024-05-09T07:58:59.305Z,967.1
2024-05-09T07:59:59.308Z,965.6
2024-05-09T08:00:59.345Z,965.1
2024-05-09T08:01:59.456Z,965.4
2024-05-09T08:02:59.334Z,965.4
2024-05-09T08:03:59.454Z,965.8
2024-05-09T08:04:59.404Z,965.8
2024-05-09T08:05:59.294Z,965.4
2024-05-09T08:06:59.406Z,965.4
2024-05-09T08:07:59.297Z,965.6
2024-05-09T08:09:03.083Z,964.5
2024-05-09T08:09:59.382Z,964
2024-05-09T08:10:59.291Z,963.6
2024-05-09T08:11:59.370Z,964
2024-05-09T08:12:59.337Z,963.8
2024-05-09T08:13:59.295Z,964
2024-05-09T08:14:59.350Z,963.2
2024-05-09T08:15:59.323Z,962.7
2024-05-09T08:16:59.309Z,962.7
2024-05-09T08:17:59.476Z,962.5
2024-05-09T08:18:59.345Z,962.1
2024-05-09T08:19:59.323Z,962.7
2024-05-09T08:20:59.311Z,962.3
2024-05-09T08:21:59.359Z,962.3
2024-05-09T08:22:59.291Z,962.3
2024-05-09T08:23:59.290Z,962.7
2024-05-09T08:24:59.336Z,962.7
2024-05-09T08:25:59.294Z,963.2
2024-05-09T08:26:59.352Z,962.7
2024-05-09T08:27:59.345Z,963
2024-05-09T08:28:59.290Z,962.3
2024-05-09T08:29:59.370Z,962.5
2024-05-09T08:31:00.051Z,963.8
2024-05-09T08:31:59.426Z,963.8
2024-05-09T08:32:59.370Z,962.7
2024-05-09T08:33:59.435Z,963.2
2024-05-09T08:34:59.349Z,963.6
2024-05-09T08:35:59.292Z,963.6
2024-05-09T08:37:03.808Z,963.2
2024-05-09T08:37:59.418Z,963.4
2024-05-09T08:38:59.298Z,963.6
2024-05-09T08:39:59.354Z,964
2024-05-09T08:40:59.322Z,964
2024-05-09T08:41:59.291Z,964.5
2024-05-09T08:42:59.340Z,964.3
2024-05-09T08:43:59.293Z,963.6
2024-05-09T08:44:59.299Z,962.5
2024-05-09T08:45:59.356Z,962.7
2024-05-09T08:46:59.297Z,962.7
2024-05-09T08:47:59.428Z,963.6
2024-05-09T08:48:59.426Z,963.4
2024-05-09T08:49:59.404Z,963.2
2024-05-09T08:50:59.504Z,963.6
2024-05-09T08:51:59.336Z,963.2
2024-05-09T08:52:59.295Z,962.7
2024-05-09T08:53:59.292Z,962.3
2024-05-09T08:54:59.357Z,962.5
2024-05-09T08:55:59.295Z,962.7
2024-05-09T08:56:59.286Z,963.2
2024-05-09T08:57:59.378Z,962.7
2024-05-09T08:58:59.299Z,962.7
2024-05-09T08:59:59.328Z,962.5
2024-05-09T09:00:59.426Z,962.7
2024-05-09T09:01:59.368Z,963
2024-05-09T09:02:59.336Z,961.9
2024-05-09T09:03:59.416Z,962.5
2024-05-09T09:04:59.397Z,962.7
2024-05-09T09:05:59.293Z,962.3
2024-05-09T09:07:00.452Z,962.7
2024-05-09T09:07:59.300Z,962.7
2024-05-09T09:08:59.294Z,962.1
2024-05-09T09:09:59.391Z,962.5
2024-05-09T09:10:59.288Z,963.2
2024-05-09T09:11:59.328Z,963.2
2024-05-09T09:12:59.423Z,962.3
2024-05-09T09:13:59.304Z,963
2024-05-09T09:14:59.355Z,963.2
2024-05-09T09:15:59.661Z,962.3
2024-05-09T09:16:59.288Z,962.7
2024-05-09T09:17:59.727Z,963.2
2024-05-09T09:18:59.441Z,962.3
2024-05-09T09:19:59.434Z,962.3
2024-05-09T09:20:59.304Z,961.9
2024-05-09T09:21:59.331Z,962.3
2024-05-09T09:22:59.295Z,963.2
2024-05-09T09:23:59.294Z,962.7
2024-05-09T09:24:59.344Z,963.6
2024-05-09T09:25:59.304Z,963.2
2024-05-09T09:26:59.322Z,963
2024-05-09T09:27:59.721Z,963
2024-05-09T09:28:59.312Z,963.2
2024-05-09T09:29:59.325Z,962.7
2024-05-09T09:30:59.359Z,963
2024-05-09T09:31:59.292Z,963.2
2024-05-09T09:32:59.456Z,963.2
2024-05-09T09:33:59.524Z,963
2024-05-09T09:34:59.335Z,962.7
2024-05-09T09:35:59.294Z,962.7
2024-05-09T09:36:59.334Z,962.7
2024-05-09T09:37:59.289Z,962.3
2024-05-09T09:38:59.291Z,962.1
2024-05-09T09:39:59.409Z,963
2024-05-09T09:40:59.395Z,962.5
2024-05-09T09:41:59.295Z,961.9
2024-05-09T09:42:59.325Z,962.7
2024-05-09T09:43:59.325Z,962.3
2024-05-09T09:45:04.813Z,961.9
2024-05-09T09:45:59.334Z,962.5
2024-05-09T09:46:59.305Z,962.5
2024-05-09T09:47:59.481Z,963.2
2024-05-09T09:48:59.454Z,963.2
2024-05-09T09:49:59.321Z,962.7
2024-05-09T09:50:59.285Z,962.3
2024-05-09T09:51:59.339Z,962.7
2024-05-09T09:52:59.296Z,962.3
2024-05-09T09:53:59.303Z,962.7
2024-05-09T09:54:59.433Z,962.3
2024-05-09T09:55:59.304Z,962.7
2024-05-09T09:56:59.295Z,962.3
2024-05-09T09:57:59.351Z,962.7
2024-05-09T09:58:59.296Z,962.1
2024-05-09T09:59:59.325Z,961.9
2024-05-09T10:00:59.384Z,962.3
2024-05-09T10:01:59.393Z,961.9
2024-05-09T10:02:59.467Z,961.4
2024-05-09T10:03:59.607Z,961.4
2024-05-09T10:04:59.444Z,962.3
2024-05-09T10:05:59.304Z,962.7
2024-05-09T10:06:59.360Z,963.2
2024-05-09T10:07:59.301Z,962.7
2024-05-09T10:08:59.293Z,961.4
2024-05-09T10:09:59.460Z,962.3
2024-05-09T10:10:59.437Z,961
2024-05-09T10:12:00.543Z,962.5
2024-05-09T10:12:59.304Z,962.3
2024-05-09T10:13:59.313Z,962.1
2024-05-09T10:14:59.333Z,962.3
2024-05-09T10:15:59.357Z,962.3
2024-05-09T10:16:59.294Z,961.9
2024-05-09T10:17:59.473Z,961.4
2024-05-09T10:18:59.412Z,961
2024-05-09T10:19:59.404Z,961.4
2024-05-09T10:20:59.299Z,961.9
2024-05-09T10:21:59.354Z,960.8
2024-05-09T10:22:59.290Z,961
2024-05-09T10:23:59.336Z,961.2
2024-05-09T10:25:00.926Z,961.9
2024-05-09T10:25:59.291Z,961
2024-05-09T10:26:59.301Z,962.1
2024-05-09T10:27:59.346Z,961.4
2024-05-09T10:28:59.295Z,961.7
2024-05-09T10:29:59.320Z,962.3
2024-05-09T10:30:59.341Z,961.9
2024-05-09T10:31:59.305Z,960.8
2024-05-09T10:32:59.358Z,958.8
2024-05-09T10:33:59.569Z,959.3
2024-05-09T10:34:59.376Z,959.7
2024-05-09T10:35:59.300Z,959.7
2024-05-09T10:37:00.391Z,958.2
2024-05-09T10:37:59.286Z,959
2024-05-09T10:38:59.300Z,958.8
2024-05-09T10:39:59.423Z,958.8
2024-05-09T10:40:59.291Z,960.1
2024-05-09T10:41:59.294Z,961
2024-05-09T10:43:00.554Z,960.6
2024-05-09T10:43:59.318Z,958.6
2024-05-09T10:44:59.372Z,959.3
2024-05-09T10:45:59.396Z,958
2024-05-09T10:46:59.332Z,958.8
2024-05-09T10:47:59.359Z,958.2
2024-05-09T10:49:01.003Z,958
2024-05-09T10:49:59.351Z,958.8
2024-05-09T10:50:59.309Z,958.4
2024-05-09T10:51:59.379Z,958.2
2024-05-09T10:52:59.319Z,958
2024-05-09T10:53:59.299Z,958.4
2024-05-09T10:55:00.398Z,958
2024-05-09T10:55:59.294Z,957.5
2024-05-09T10:56:59.300Z,958.8
2024-05-09T10:57:59.320Z,958
2024-05-09T10:58:59.313Z,959
2024-05-09T10:59:59.311Z,957.7
2024-05-09T11:01:00.665Z,958
2024-05-09T11:01:59.443Z,958.4
2024-05-09T11:02:59.346Z,958
2024-05-09T11:03:59.459Z,958.8
2024-05-09T11:04:59.478Z,958.4
2024-05-09T11:05:59.350Z,958
2024-05-09T11:07:00.980Z,958.2
2024-05-09T11:07:59.324Z,958
2024-05-09T11:08:59.333Z,957.5
2024-05-09T11:09:59.449Z,957.1
2024-05-09T11:10:59.357Z,957.5
2024-05-09T11:11:59.395Z,957.7
2024-05-09T11:12:59.389Z,955.8
2024-05-09T11:13:59.348Z,956.2
2024-05-09T11:14:59.339Z,957.5
2024-05-09T11:15:59.515Z,957.1
2024-05-09T11:16:59.371Z,957.5
2024-05-09T11:17:59.432Z,956
2024-05-09T11:18:59.684Z,956.9
2024-05-09T11:19:59.443Z,958
2024-05-09T11:20:59.336Z,957.3
2024-05-09T11:21:59.313Z,956.7
2024-05-09T11:22:59.330Z,957.1
2024-05-09T11:23:59.332Z,957.1
2024-05-09T11:24:59.391Z,957.5
2024-05-09T11:25:59.489Z,957.1
2024-05-09T11:26:59.312Z,958
2024-05-09T11:27:59.403Z,958.4
2024-05-09T11:28:59.328Z,956.9
2024-05-09T11:29:59.400Z,958
2024-05-09T11:30:59.408Z,957.1
2024-05-09T11:31:59.341Z,957.5
2024-05-09T11:32:59.514Z,957.1
2024-05-09T11:33:59.361Z,957.7
2024-05-09T11:34:59.319Z,958.4
2024-05-09T11:35:59.294Z,958.2
2024-05-09T11:36:59.385Z,957.7
2024-05-09T11:37:59.326Z,957.1
2024-05-09T11:38:59.309Z,958
2024-05-09T11:39:59.583Z,957.1
2024-05-09T11:40:59.299Z,958
2024-05-09T11:41:59.298Z,958
2024-05-09T11:42:59.378Z,958.2
2024-05-09T11:43:59.334Z,958.4
2024-05-09T11:44:59.331Z,956.2
2024-05-09T11:45:59.359Z,955.6
2024-05-09T11:46:59.301Z,957.1
2024-05-09T11:47:59.391Z,954.9
2024-05-09T11:48:59.436Z,954.9
2024-05-09T11:49:59.569Z,954.5
2024-05-09T11:50:59.350Z,955.4
2024-05-09T11:51:59.363Z,955.1
2024-05-09T11:52:59.318Z,955.1
2024-05-09T11:53:59.372Z,956.2
2024-05-09T11:54:59.367Z,955.8
2024-05-09T11:55:59.350Z,954.5
2024-05-09T11:56:59.315Z,952.3
2024-05-09T11:57:59.334Z,953.6
2024-05-09T11:58:59.301Z,953.8
2024-05-09T11:59:59.375Z,953
2024-05-09T12:00:59.353Z,953.2
2024-05-09T12:01:59.341Z,954.5
2024-05-09T12:02:59.306Z,953.8
2024-05-09T12:03:59.529Z,955.4
2024-05-09T12:04:59.454Z,953.8
2024-05-09T12:05:59.517Z,955.4
2024-05-09T12:06:59.323Z,955.6
2024-05-09T12:07:59.304Z,956.2
2024-05-09T12:08:59.309Z,954.3
2024-05-09T12:09:59.396Z,955.8
2024-05-09T12:10:59.499Z,955.4
2024-05-09T12:11:59.375Z,954.7
2024-05-09T12:12:59.363Z,954.3
2024-05-09T12:13:59.300Z,953.6
2024-05-09T12:14:59.315Z,953
2024-05-09T12:15:59.446Z,953.8
2024-05-09T12:16:59.325Z,952.7
2024-05-09T12:18:02.698Z,954.5
2024-05-09T12:18:59.446Z,953.6
2024-05-09T12:19:59.316Z,953.6
2024-05-09T12:20:59.301Z,954.5
2024-05-09T12:21:59.370Z,955.1
2024-05-09T12:22:59.295Z,954
2024-05-09T12:23:59.303Z,954.5
2024-05-09T12:24:59.357Z,953.8
2024-05-09T12:25:59.310Z,952.7
2024-05-09T12:26:59.311Z,952.7
2024-05-09T12:27:59.615Z,953
2024-05-09T12:28:59.338Z,952.1
2024-05-09T12:29:59.391Z,952.3
2024-05-09T12:30:59.324Z,951.9
2024-05-09T12:31:59.368Z,951.9
2024-05-09T12:32:59.382Z,952.7
2024-05-09T12:33:59.360Z,952.3
2024-05-09T12:34:59.306Z,952.7
2024-05-09T12:35:59.312Z,952.7
2024-05-09T12:36:59.343Z,953.2
2024-05-09T12:37:59.349Z,952.7
2024-05-09T12:38:59.310Z,953
2024-05-09T12:39:59.418Z,953.6
2024-05-09T12:40:59.361Z,953.2
2024-05-09T12:41:59.378Z,951.7
2024-05-09T12:42:59.336Z,951.4
2024-05-09T12:43:59.298Z,951.4
2024-05-09T12:44:59.331Z,950.8
2024-05-09T12:45:59.512Z,950.8
2024-05-09T12:46:59.308Z,951.4
2024-05-09T12:47:59.614Z,951.2
2024-05-09T12:48:59.485Z,953
2024-05-09T12:49:59.338Z,952.3
2024-05-09T12:50:59.424Z,952.3
2024-05-09T12:51:59.356Z,951
2024-05-09T12:52:59.322Z,951.4
2024-05-09T12:53:59.293Z,950.6
2024-05-09T12:54:59.333Z,950.6
2024-05-09T12:56:02.288Z,951.9
2024-05-09T12:56:59.292Z,950.6
2024-05-09T12:57:59.426Z,950.1
2024-05-09T12:58:59.312Z,951.9
2024-05-09T12:59:59.327Z,951
2024-05-09T13:00:59.414Z,951.4
2024-05-09T13:02:01.042Z,951
2024-05-09T13:02:59.369Z,951
2024-05-09T13:03:59.506Z,950.6
2024-05-09T13:04:59.380Z,950.8
2024-05-09T13:05:59.309Z,951.4